createdAt,value
2019-01-21T00:01:47.874Z,53.23
2019-01-21T00:04:19.311Z,52.70
2019-01-21T00:06:50.440Z,55.97
2019-01-21T00:09:21.801Z,56.03
2019-01-21T00:11:52.897Z,57.40
2019-01-21T00:14:24.293Z,59.87
2019-01-21T00:16:55.377Z,53.23
2019-01-21T00:19:26.890Z,53.30
2019-01-21T00:21:57.971Z,56.10
2019-01-21T00:24:29.375Z,53.38
2019-01-21T00:27:12.118Z,59.07
2019-01-21T00:29:43.335Z,52.98
2019-01-21T00:32:14.399Z,56.03
2019-01-21T00:34:45.741Z,58.70
2019-01-21T00:37:16.925Z,52.53
2019-01-21T00:39:48.340Z,52.40
2019-01-21T00:42:19.434Z,60.23
2019-01-21T00:44:58.719Z,62.30
2019-01-21T00:47:30.320Z,62.47
2019-01-21T00:50:02.056Z,53.57
2019-01-21T00:52:33.177Z,52.27
2019-01-21T00:55:04.725Z,62.20
2019-01-21T00:57:35.863Z,64.83
2019-01-21T01:00:11.229Z,58.07
2019-01-21T01:02:42.468Z,60.47
2019-01-21T01:05:24.275Z,59.17
2019-01-21T01:07:55.417Z,53.17
2019-01-21T01:10:31.591Z,56.63
2019-01-21T01:13:02.646Z,56.50
2019-01-21T01:15:34.467Z,69.83
2019-01-21T01:18:06.683Z,57.20
2019-01-21T01:20:38.079Z,52.00
2019-01-21T01:23:09.293Z,59.60
2019-01-21T01:25:40.685Z,53.80
2019-01-21T01:28:11.777Z,53.60
2019-01-21T01:30:55.814Z,59.70
2019-01-21T01:33:26.928Z,55.70
2019-01-21T01:35:58.476Z,55.97
2019-01-21T01:38:30.141Z,59.05
2019-01-21T01:41:03.227Z,57.23
2019-01-21T01:43:34.359Z,58.80
2019-01-21T01:46:05.964Z,57.13
2019-01-21T01:48:37.011Z,53.43
2019-01-21T01:51:08.520Z,61.97
2019-01-21T01:53:39.727Z,57.83
2019-01-21T01:56:11.233Z,61.05
2019-01-21T01:58:42.375Z,66.10
2019-01-21T02:01:25.350Z,55.93
2019-01-21T02:03:56.426Z,55.50
2019-01-21T02:06:27.712Z,54.10
2019-01-21T02:08:58.856Z,56.53
2019-01-21T02:11:30.266Z,54.43
2019-01-21T02:14:01.325Z,61.10
2019-01-21T02:16:32.637Z,53.50
2019-01-21T02:19:03.717Z,53.70
2019-01-21T02:21:39.004Z,56.02
2019-01-21T02:24:11.939Z,52.98
2019-01-21T02:27:05.791Z,58.47
2019-01-21T02:29:56.289Z,60.80
2019-01-21T02:32:51.439Z,63.83
2019-01-21T02:35:36.596Z,66.57
2019-01-21T02:38:29.249Z,57.20
2019-01-21T02:41:11.639Z,55.98
2019-01-21T02:44:32.861Z,60.05
2019-01-21T02:47:44.441Z,61.37
2019-01-21T02:50:50.104Z,55.77
2019-01-21T02:53:40.866Z,62.00
2019-01-21T02:57:03.982Z,59.15
2019-01-21T02:59:56.694Z,57.93
2019-01-21T03:03:08.938Z,63.05
2019-01-21T03:06:02.041Z,59.73
2019-01-21T03:09:08.232Z,60.57
2019-01-21T03:12:20.627Z,63.23
2019-01-21T03:15:31.080Z,59.47
2019-01-21T03:18:39.351Z,60.88
2019-01-21T03:21:47.576Z,61.48
2019-01-21T03:24:42.707Z,58.77
2019-01-21T03:27:25.810Z,60.60
2019-01-21T03:30:32.569Z,61.98
2019-01-21T03:33:27.691Z,60.33
2019-01-21T03:36:37.209Z,65.17
2019-01-21T03:39:37.492Z,66.42
2019-01-21T03:42:20.091Z,63.30
2019-01-21T03:45:44.673Z,66.50
2019-01-21T03:48:24.415Z,58.43
2019-01-21T03:51:31.367Z,63.27
2019-01-21T03:54:19.560Z,63.20
2019-01-21T03:57:22.759Z,59.98
2019-01-21T04:00:12.906Z,61.65
2019-01-21T04:03:21.864Z,56.67
2019-01-21T04:06:27.777Z,65.92
2019-01-21T04:09:47.625Z,64.80
2019-01-21T04:12:57.962Z,61.40
2019-01-21T04:16:10.294Z,62.50
2019-01-21T04:18:58.576Z,63.08
2019-01-21T04:22:08.296Z,65.87
2019-01-21T04:25:13.556Z,64.90
2019-01-21T04:28:12.936Z,66.63
2019-01-21T04:31:19.569Z,60.95
2019-01-21T04:34:22.836Z,61.57
2019-01-21T04:37:47.155Z,64.45
2019-01-21T04:40:54.541Z,66.37
2019-01-21T04:44:12.231Z,64.80
2019-01-21T04:47:26.193Z,65.78
2019-01-21T04:50:18.985Z,58.48
2019-01-21T04:53:23.648Z,67.13
2019-01-21T04:56:31.634Z,64.47
2019-01-21T04:59:55.755Z,68.63
2019-01-21T05:03:03.783Z,65.97
2019-01-21T05:06:27.447Z,70.72
2019-01-21T05:09:11.895Z,66.95
2019-01-21T05:12:13.058Z,64.32
2019-01-21T05:15:16.458Z,76.37
2019-01-21T05:18:29.960Z,72.85
2019-01-21T05:21:32.919Z,63.28
2019-01-21T05:24:46.711Z,66.55
2019-01-21T05:27:48.101Z,63.87
2019-01-21T05:30:55.690Z,77.10
2019-01-21T05:33:50.728Z,69.50
2019-01-21T05:37:05.788Z,67.15
2019-01-21T05:40:05.317Z,68.37
2019-01-21T05:43:03.549Z,71.70
2019-01-21T05:46:22.003Z,70.50
2019-01-21T05:49:30.014Z,68.70
2019-01-21T05:52:21.712Z,67.15
2019-01-21T05:55:49.312Z,69.22
2019-01-21T05:58:50.613Z,71.22
2019-01-21T06:02:06.366Z,77.50
2019-01-21T06:05:18.441Z,71.00
2019-01-21T06:08:16.015Z,65.37
2019-01-21T06:10:57.581Z,69.47
2019-01-21T06:14:12.595Z,70.10
2019-01-21T06:17:04.307Z,64.65
2019-01-21T06:20:15.580Z,61.65
2019-01-21T06:23:18.375Z,70.55
2019-01-21T06:26:27.111Z,66.30
2019-01-21T06:29:41.703Z,66.95
2019-01-21T06:33:02.571Z,71.25
2019-01-21T06:36:22.869Z,72.08
2019-01-21T06:39:59.359Z,76.87
2019-01-21T06:43:08.455Z,74.27
2019-01-21T06:46:34.892Z,69.40
2019-01-21T06:49:35.234Z,69.75
2019-01-21T06:52:56.687Z,75.32
2019-01-21T06:56:15.083Z,70.57
2019-01-21T06:59:18.241Z,75.30
2019-01-21T07:05:40.903Z,80.07
2019-01-21T07:08:32.262Z,78.28
2019-01-21T07:11:31.981Z,89.03
2019-01-21T07:14:24.071Z,67.87
2019-01-21T07:17:32.609Z,68.00
2019-01-21T07:20:34.975Z,76.87
2019-01-21T07:23:53.433Z,80.65
2019-01-21T07:26:52.602Z,73.97
2019-01-21T07:30:06.485Z,72.65
2019-01-21T07:33:19.039Z,81.25
2019-01-21T07:36:55.929Z,82.02
2019-01-21T07:40:04.991Z,79.77
2019-01-21T07:43:35.657Z,77.65
2019-01-21T07:46:41.297Z,69.30
2019-01-21T07:50:04.237Z,73.62
2019-01-21T07:53:37.190Z,79.37
2019-01-21T07:56:40.161Z,75.35
2019-01-21T07:59:47.741Z,76.72
2019-01-21T08:03:24.436Z,74.85
2019-01-21T08:06:26.553Z,72.37
2019-01-21T08:09:36.055Z,77.13
2019-01-21T08:12:37.163Z,70.65
2019-01-21T08:15:18.992Z,78.40
2019-01-21T08:18:17.884Z,69.13
2019-01-21T08:21:22.417Z,79.17
2019-01-21T08:24:06.955Z,77.60
2019-01-21T08:27:34.743Z,73.30
2019-01-21T08:30:24.433Z,70.50
2019-01-21T08:33:32.651Z,77.33
2019-01-21T08:36:26.443Z,74.17
2019-01-21T08:39:33.572Z,76.75
2019-01-21T08:42:57.862Z,74.03
2019-01-21T08:46:23.941Z,77.17
2019-01-21T08:49:41.391Z,77.70
2019-01-21T08:52:26.127Z,80.33
2019-01-21T08:55:37.747Z,78.90
2019-01-21T08:58:41.219Z,72.73
2019-01-21T09:01:44.351Z,80.93
2019-01-21T09:04:48.036Z,68.42
2019-01-21T09:07:47.795Z,82.67
2019-01-21T09:10:42.059Z,80.43
2019-01-21T09:13:40.736Z,72.73
2019-01-21T09:16:38.983Z,76.83
2019-01-21T09:19:23.879Z,76.70
2019-01-21T09:22:26.559Z,78.50
2019-01-21T09:25:21.911Z,68.60
2019-01-21T09:28:25.878Z,83.07
2019-01-21T09:31:54.195Z,73.50
2019-01-21T09:35:14.863Z,78.73
2019-01-21T09:38:23.798Z,79.10
2019-01-21T09:41:34.469Z,73.90
2019-01-21T09:44:30.179Z,77.63
2019-01-21T09:47:00.111Z,85.13
2019-01-21T09:49:29.529Z,71.67
2019-01-21T09:52:10.725Z,78.57
2019-01-21T09:54:42.162Z,69.37
2019-01-21T09:57:23.319Z,71.37
2019-01-21T10:00:06.453Z,78.30
2019-01-21T10:02:59.081Z,71.27
2019-01-21T10:05:32.455Z,80.90
2019-01-21T10:08:18.489Z,74.47
2019-01-21T10:11:19.023Z,69.83
2019-01-21T10:14:37.185Z,72.97
2019-01-21T10:18:04.162Z,76.17
2019-01-21T10:21:02.588Z,79.93
2019-01-21T10:24:16.794Z,73.67
2019-01-21T10:27:24.158Z,69.03
2019-01-21T10:30:47.357Z,76.77
2019-01-21T10:33:42.434Z,70.73
2019-01-21T10:36:52.532Z,72.80
2019-01-21T10:40:07.962Z,74.83
2019-01-21T10:43:06.851Z,72.43
2019-01-21T10:46:01.153Z,69.33
2019-01-21T10:48:58.349Z,72.67
2019-01-21T10:52:13.834Z,69.37
2019-01-21T10:55:25.159Z,75.73
2019-01-21T10:58:12.647Z,77.13
2019-01-21T11:01:40.177Z,75.10
2019-01-21T11:05:07.815Z,72.83
2019-01-21T11:08:15.559Z,74.93
2019-01-21T11:11:11.778Z,70.17
2019-01-21T11:14:27.221Z,75.27
2019-01-21T11:17:22.580Z,76.53
2019-01-21T11:20:25.830Z,71.47
2019-01-21T11:23:12.078Z,79.70
2019-01-21T11:26:21.319Z,68.07
2019-01-21T11:29:22.515Z,74.17
2019-01-21T11:32:26.368Z,70.40
2019-01-21T11:35:35.403Z,63.27
2019-01-21T11:38:52.755Z,76.50
2019-01-21T11:41:51.431Z,77.43
2019-01-21T11:45:19.007Z,70.20
2019-01-21T11:48:05.007Z,81.40
2019-01-21T11:51:04.956Z,71.20
2019-01-21T11:54:01.553Z,71.70
2019-01-21T11:56:52.167Z,76.97
2019-01-21T11:59:43.670Z,67.10
2019-01-21T12:02:55.569Z,69.23
2019-01-21T12:05:49.656Z,77.87
2019-01-21T12:09:16.928Z,71.43
2019-01-21T12:11:59.132Z,71.60
2019-01-21T12:15:13.080Z,74.40
2019-01-21T12:18:22.507Z,70.77
2019-01-21T12:21:18.301Z,69.93
2019-01-21T12:24:26.619Z,71.33
2019-01-21T12:27:43.832Z,70.27
2019-01-21T12:30:46.364Z,79.90
2019-01-21T12:33:51.063Z,68.93
2019-01-21T12:36:37.693Z,68.40
2019-01-21T12:39:40.828Z,75.27
2019-01-21T12:42:56.424Z,84.97
2019-01-21T12:46:10.472Z,77.57
2019-01-21T12:49:31.346Z,84.70
2019-01-21T12:52:32.729Z,88.43
2019-01-21T12:55:39.411Z,78.43
2019-01-21T12:58:23.465Z,86.30
2019-01-21T13:01:19.563Z,77.13
2019-01-21T13:04:34.007Z,79.30
2019-01-21T13:07:29.729Z,70.57
2019-01-21T13:10:24.394Z,84.33
2019-01-21T13:13:30.595Z,74.87
2019-01-21T13:16:28.119Z,80.80
2019-01-21T13:19:49.275Z,95.83
2019-01-21T13:22:51.318Z,76.00
2019-01-21T13:26:02.922Z,77.70
2019-01-21T13:29:06.440Z,78.07
2019-01-21T13:32:13.320Z,78.50
2019-01-21T13:35:16.593Z,74.27
2019-01-21T13:38:25.752Z,68.37
2019-01-21T13:41:24.905Z,74.47
2019-01-21T13:44:41.261Z,74.40
2019-01-21T13:47:50.741Z,75.87
2019-01-21T13:51:05.165Z,76.33
2019-01-21T13:54:24.657Z,86.77
2019-01-21T13:57:24.738Z,80.80
2019-01-21T14:00:46.075Z,78.37
2019-01-21T14:03:35.672Z,75.40
2019-01-21T14:06:46.207Z,80.53
2019-01-21T14:09:59.881Z,74.53
2019-01-21T14:13:03.171Z,78.07
2019-01-21T14:16:25.625Z,75.97
2019-01-21T14:19:24.666Z,77.37
2019-01-21T14:22:44.737Z,73.27
2019-01-21T14:25:51.555Z,71.43
2019-01-21T14:28:39.671Z,72.50
2019-01-21T14:31:41.286Z,70.93
2019-01-21T14:34:44.911Z,70.07
2019-01-21T14:37:47.348Z,69.23
2019-01-21T14:40:48.523Z,75.27
2019-01-21T14:43:48.793Z,72.30
2019-01-21T14:46:54.518Z,73.60
2019-01-21T14:50:19.549Z,71.37
2019-01-21T14:53:49.488Z,73.07
2019-01-21T14:56:31.603Z,88.20
2019-01-21T14:59:14.753Z,81.53
2019-01-21T15:01:58.712Z,75.13
2019-01-21T15:04:53.658Z,87.83
2019-01-21T15:07:53.616Z,87.43
2019-01-21T15:11:12.691Z,81.77
2019-01-21T15:14:09.882Z,80.53
2019-01-21T15:17:21.600Z,78.80
2019-01-21T15:20:06.495Z,84.90
2019-01-21T15:23:19.775Z,84.83
2019-01-21T15:26:18.075Z,78.97
2019-01-21T15:29:38.620Z,90.63
2019-01-21T15:32:39.773Z,74.70
2019-01-21T15:35:49.722Z,85.93
2019-01-21T15:38:59.177Z,77.87
2019-01-21T15:42:01.788Z,75.50
2019-01-21T15:45:01.424Z,77.97
2019-01-21T15:47:56.980Z,82.43
2019-01-21T15:50:39.304Z,81.00
2019-01-21T15:53:40.775Z,80.30
2019-01-21T15:56:20.535Z,79.83
2019-01-21T15:59:44.097Z,81.70
2019-01-21T16:02:48.001Z,80.17
2019-01-21T16:05:57.273Z,94.80
2019-01-21T16:08:37.927Z,89.53
2019-01-21T16:11:58.096Z,83.77
2019-01-21T16:15:16.352Z,77.07
2019-01-21T16:18:15.356Z,82.20
2019-01-21T16:21:19.705Z,77.93
2019-01-21T16:24:28.154Z,87.40
2019-01-21T16:27:08.021Z,82.50
2019-01-21T16:29:50.730Z,79.03
2019-01-21T16:32:45.569Z,78.73
2019-01-21T16:35:34.017Z,81.83
2019-01-21T16:38:39.725Z,78.63
2019-01-21T16:42:02.563Z,79.00
2019-01-21T16:44:33.648Z,109.90
2019-01-21T16:47:05.120Z,99.93
2019-01-21T16:49:36.191Z,90.73
2019-01-21T16:52:07.516Z,86.10
2019-01-21T16:54:38.565Z,83.07
2019-01-21T16:57:09.903Z,86.83
2019-01-21T16:59:41.000Z,101.30
2019-01-21T17:02:12.401Z,83.93
2019-01-21T17:04:43.493Z,83.27
2019-01-21T17:07:14.862Z,84.93
2019-01-21T17:09:45.988Z,76.03
2019-01-21T17:12:17.222Z,79.63
2019-01-21T17:14:48.330Z,81.17
2019-01-21T17:17:19.678Z,76.70
2019-01-21T17:19:50.776Z,84.87
2019-01-21T17:22:22.064Z,77.43
2019-01-21T17:24:53.234Z,77.50
2019-01-21T17:27:26.098Z,77.87
2019-01-21T17:30:36.305Z,83.77
2019-01-21T17:33:07.608Z,85.53
2019-01-21T17:35:39.193Z,81.13
2019-01-21T17:38:10.799Z,82.80
2019-01-21T17:40:42.016Z,73.83
2019-01-21T17:43:13.818Z,85.30
2019-01-21T17:45:45.273Z,79.17
2019-01-21T17:48:29.328Z,81.77
2019-01-21T17:51:00.505Z,76.67
2019-01-21T17:53:32.444Z,71.60
2019-01-21T17:56:15.558Z,85.33
2019-01-21T17:58:46.961Z,73.97
2019-01-21T18:01:18.135Z,79.53
2019-01-21T18:03:49.724Z,73.30
2019-01-21T18:06:37.244Z,84.67
2019-01-21T18:09:10.450Z,80.30
2019-01-21T18:11:41.661Z,80.17
2019-01-21T18:14:13.403Z,78.33
2019-01-21T18:16:44.591Z,84.17
2019-01-21T18:19:16.042Z,74.70
2019-01-21T18:25:42.536Z,80.87
2019-01-21T18:28:13.780Z,89.67
2019-01-21T18:30:45.302Z,79.53
2019-01-21T18:33:28.540Z,79.57
2019-01-21T18:36:11.706Z,78.55
2019-01-21T18:38:42.854Z,86.87
2019-01-21T18:41:15.508Z,74.57
2019-01-21T18:43:48.900Z,77.22
2019-01-21T18:46:20.192Z,83.40
2019-01-21T18:48:51.304Z,74.63
2019-01-21T18:51:26.456Z,78.07
2019-01-21T18:53:57.640Z,84.62
2019-01-21T18:56:29.031Z,77.87
2019-01-21T18:59:00.135Z,84.87
2019-01-21T19:01:31.511Z,81.73
2019-01-21T19:04:02.640Z,74.43
2019-01-21T19:13:26.619Z,74.57
2019-01-21T19:16:31.179Z,83.45
2019-01-21T19:19:03.611Z,79.93
2019-01-21T19:21:34.982Z,79.37
2019-01-21T19:24:06.987Z,81.50
2019-01-21T19:26:38.231Z,80.67
2019-01-21T19:29:09.592Z,81.00
2019-01-21T19:34:53.982Z,86.93
2019-01-21T19:37:25.243Z,88.83
2019-01-21T19:39:56.574Z,94.87
2019-01-21T19:49:17.914Z,83.22
2019-01-21T19:51:49.103Z,93.87
2019-01-21T19:54:41.564Z,84.83
2019-01-21T20:00:20.646Z,79.13
2019-01-21T20:02:52.789Z,85.97
2019-01-21T20:05:34.430Z,80.67
2019-01-21T20:08:05.931Z,78.83
2019-01-21T20:10:38.454Z,86.27
2019-01-21T20:13:10.098Z,77.87
2019-01-21T20:15:55.624Z,79.33
2019-01-21T20:18:28.708Z,92.17
2019-01-21T20:21:00.078Z,84.37
2019-01-21T20:23:35.136Z,82.25
2019-01-21T20:26:06.676Z,73.90
2019-01-21T20:28:38.050Z,79.60
2019-01-21T20:31:09.599Z,86.23
2019-01-21T20:33:41.115Z,74.37
2019-01-21T20:36:12.806Z,84.00
2019-01-21T20:38:44.048Z,86.82
2019-01-21T20:41:15.695Z,86.27
2019-01-21T20:43:46.948Z,74.90
2019-01-21T20:46:18.358Z,76.97
2019-01-21T20:48:49.628Z,78.10
2019-01-21T20:51:21.212Z,79.57
2019-01-21T20:53:52.476Z,75.53
2019-01-21T20:56:23.880Z,81.60
2019-01-21T20:58:55.195Z,85.23
2019-01-21T21:01:26.696Z,85.00
2019-01-21T21:03:57.918Z,75.07
2019-01-21T21:06:29.289Z,74.63
2019-01-21T21:09:00.664Z,90.93
2019-01-21T21:11:33.548Z,83.30
2019-01-21T21:14:04.636Z,79.10
2019-01-21T21:16:36.012Z,80.93
2019-01-21T21:19:07.055Z,80.73
2019-01-21T21:21:38.152Z,84.23
2019-01-21T21:24:09.432Z,89.10
2019-01-21T21:26:40.806Z,79.73
2019-01-21T21:29:11.816Z,85.43
2019-01-21T21:31:43.186Z,92.17
2019-01-21T21:34:14.512Z,84.50
2019-01-21T21:36:45.785Z,95.40
2019-01-21T21:39:17.412Z,93.33
2019-01-21T21:41:48.744Z,84.30
2019-01-21T21:44:21.258Z,87.50
2019-01-21T21:46:52.658Z,94.47
2019-01-21T21:49:24.715Z,91.65
2019-01-21T21:51:56.030Z,95.35
2019-01-21T21:54:27.071Z,90.85
2019-01-21T21:56:58.637Z,89.30
2019-01-21T21:59:29.701Z,98.87
2019-01-21T22:02:01.047Z,97.78
2019-01-21T22:04:32.166Z,103.87
2019-01-21T22:07:03.519Z,89.37
2019-01-21T22:09:34.931Z,92.73
2019-01-21T22:12:06.325Z,88.17
2019-01-21T22:14:37.342Z,86.50
2019-01-21T22:17:13.666Z,89.53
2019-01-21T22:19:44.812Z,91.37
2019-01-21T22:22:16.120Z,88.83
2019-01-21T22:24:48.359Z,89.92
2019-01-21T22:27:19.858Z,90.17
2019-01-21T22:29:51.457Z,86.20
2019-01-21T22:32:22.841Z,83.90
2019-01-21T22:34:54.060Z,90.13
2019-01-21T22:37:26.476Z,88.87
2019-01-21T22:39:57.885Z,92.03
2019-01-21T22:42:29.366Z,85.37
2019-01-21T22:45:00.549Z,96.73
2019-01-21T22:47:32.168Z,89.63
2019-01-21T22:50:03.390Z,91.30
2019-01-21T22:52:41.666Z,87.37
2019-01-21T22:55:08.962Z,96.00
2019-01-21T22:57:40.344Z,103.02
2019-01-21T23:00:29.974Z,97.97
2019-01-21T23:03:02.895Z,90.43
2019-01-21T23:05:34.198Z,94.40
2019-01-21T23:08:05.805Z,86.87
2019-01-21T23:10:38.777Z,89.37
2019-01-21T23:13:11.366Z,99.07
2019-01-21T23:15:42.646Z,91.00
2019-01-21T23:18:13.989Z,84.67
2019-01-21T23:20:45.191Z,88.77
2019-01-21T23:23:16.558Z,85.63
2019-01-21T23:25:47.840Z,86.50
2019-01-21T23:28:19.358Z,86.87
2019-01-21T23:30:50.578Z,92.20
2019-01-21T23:33:22.160Z,84.20
2019-01-21T23:35:53.354Z,97.47
2019-01-21T23:38:24.767Z,85.23
2019-01-21T23:40:56.219Z,97.60
2019-01-21T23:43:27.667Z,103.57
2019-01-21T23:45:58.876Z,85.80
2019-01-21T23:48:30.225Z,89.80
2019-01-21T23:51:01.422Z,90.47
2019-01-21T23:53:32.694Z,93.00
2019-01-21T23:56:04.203Z,88.33
2019-01-21T23:58:35.658Z,75.63
